sensor_id;sensor_type;location;lat;lon;timestamp;temperature;humidity
66140;DHT22;52945;51.908;8.364;2023-04-07T00:00:48;10.90;66.70
66140;DHT22;52945;51.908;8.364;2023-04-07T00:03:48;11.00;66.90
66140;DHT22;52945;51.908;8.364;2023-04-07T00:06:49;10.90;67.00
66140;DHT22;52945;51.908;8.364;2023-04-07T00:09:49;10.90;67.10
66140;DHT22;52945;51.908;8.364;2023-04-07T00:12:50;10.90;67.10
66140;DHT22;52945;51.908;8.364;2023-04-07T00:15:51;10.90;67.00
66140;DHT22;52945;51.908;8.364;2023-04-07T00:18:52;11.00;67.20
66140;DHT22;52945;51.908;8.364;2023-04-07T00:21:52;11.00;67.10
66140;DHT22;52945;51.908;8.364;2023-04-07T00:24:53;11.00;67.20
66140;DHT22;52945;51.908;8.364;2023-04-07T00:27:54;11.00;67.40
66140;DHT22;52945;51.908;8.364;2023-04-07T00:30:54;11.10;67.50
66140;DHT22;52945;51.908;8.364;2023-04-07T00:33:55;11.10;66.70
66140;DHT22;52945;51.908;8.364;2023-04-07T00:36:56;11.00;67.10
66140;DHT22;52945;51.908;8.364;2023-04-07T00:39:57;10.80;67.10
66140;DHT22;52945;51.908;8.364;2023-04-07T00:42:58;10.70;67.30
66140;DHT22;52945;51.908;8.364;2023-04-07T00:45:59;10.60;67.60
66140;DHT22;52945;51.908;8.364;2023-04-07T00:48:59;10.60;67.60
66140;DHT22;52945;51.908;8.364;2023-04-07T00:52:00;10.60;67.50
66140;DHT22;52945;51.908;8.364;2023-04-07T00:55:01;10.60;67.20
66140;DHT22;52945;51.908;8.364;2023-04-07T00:58:01;10.60;67.30
66140;DHT22;52945;51.908;8.364;2023-04-07T01:01:08;10.60;67.20
66140;DHT22;52945;51.908;8.364;2023-04-07T01:04:25;10.60;67.10
66140;DHT22;52945;51.908;8.364;2023-04-07T01:07:33;10.60;67.30
66140;DHT22;52945;51.908;8.364;2023-04-07T01:10:51;10.60;67.40
66140;DHT22;52945;51.908;8.364;2023-04-07T01:13:53;10.60;67.60
66140;DHT22;52945;51.908;8.364;2023-04-07T01:16:56;10.50;67.80
66140;DHT22;52945;51.908;8.364;2023-04-07T01:20:04;10.50;67.60
66140;DHT22;52945;51.908;8.364;2023-04-07T01:23:07;10.50;67.90
66140;DHT22;52945;51.908;8.364;2023-04-07T01:26:27;10.50;67.90
66140;DHT22;52945;51.908;8.364;2023-04-07T01:29:30;10.50;68.10
66140;DHT22;52945;51.908;8.364;2023-04-07T01:32:34;10.50;68.00
66140;DHT22;52945;51.908;8.364;2023-04-07T01:35:36;10.50;67.90
66140;DHT22;52945;51.908;8.364;2023-04-07T01:38:38;10.50;67.80
66140;DHT22;52945;51.908;8.364;2023-04-07T01:41:40;10.50;68.10
66140;DHT22;52945;51.908;8.364;2023-04-07T01:44:42;10.40;68.10
66140;DHT22;52945;51.908;8.364;2023-04-07T01:47:42;10.40;68.50
66140;DHT22;52945;51.908;8.364;2023-04-07T01:50:44;10.40;68.80
66140;DHT22;52945;51.908;8.364;2023-04-07T01:53:46;10.40;68.40
66140;DHT22;52945;51.908;8.364;2023-04-07T01:56:47;10.40;68.50
66140;DHT22;52945;51.908;8.364;2023-04-07T01:59:48;10.40;68.50
66140;DHT22;52945;51.908;8.364;2023-04-07T02:02:52;10.50;68.90
66140;DHT22;52945;51.908;8.364;2023-04-07T02:05:57;10.50;68.70
66140;DHT22;52945;51.908;8.364;2023-04-07T02:09:04;10.40;68.80
66140;DHT22;52945;51.908;8.364;2023-04-07T02:12:08;10.50;69.00
66140;DHT22;52945;51.908;8.364;2023-04-07T02:15:11;10.50;69.00
66140;DHT22;52945;51.908;8.364;2023-04-07T02:18:14;10.60;68.80
66140;DHT22;52945;51.908;8.364;2023-04-07T02:21:16;10.60;69.00
66140;DHT22;52945;51.908;8.364;2023-04-07T02:24:21;10.60;69.20
66140;DHT22;52945;51.908;8.364;2023-04-07T02:27:21;10.60;69.10
66140;DHT22;52945;51.908;8.364;2023-04-07T02:30:22;10.60;69.20
66140;DHT22;52945;51.908;8.364;2023-04-07T02:33:23;10.50;69.10
66140;DHT22;52945;51.908;8.364;2023-04-07T02:36:23;10.50;69.60
66140;DHT22;52945;51.908;8.364;2023-04-07T02:39:24;10.60;69.90
66140;DHT22;52945;51.908;8.364;2023-04-07T02:42:25;10.60;69.90
66140;DHT22;52945;51.908;8.364;2023-04-07T02:45:25;10.50;69.90
66140;DHT22;52945;51.908;8.364;2023-04-07T02:48:26;10.50;70.20
66140;DHT22;52945;51.908;8.364;2023-04-07T02:51:27;10.50;70.30
66140;DHT22;52945;51.908;8.364;2023-04-07T02:54:28;10.50;70.50
66140;DHT22;52945;51.908;8.364;2023-04-07T02:57:28;10.50;70.50
66140;DHT22;52945;51.908;8.364;2023-04-07T03:00:29;10.40;70.70
66140;DHT22;52945;51.908;8.364;2023-04-07T03:03:29;10.40;71.00
66140;DHT22;52945;51.908;8.364;2023-04-07T03:06:30;10.50;71.10
66140;DHT22;52945;51.908;8.364;2023-04-07T03:09:32;10.40;70.90
66140;DHT22;52945;51.908;8.364;2023-04-07T03:12:33;10.40;71.10
66140;DHT22;52945;51.908;8.364;2023-04-07T03:15:33;10.40;71.60
66140;DHT22;52945;51.908;8.364;2023-04-07T03:18:34;10.40;71.70
66140;DHT22;52945;51.908;8.364;2023-04-07T03:21:38;10.30;71.50
66140;DHT22;52945;51.908;8.364;2023-04-07T03:24:39;10.30;71.90
66140;DHT22;52945;51.908;8.364;2023-04-07T03:27:40;10.20;72.00
66140;DHT22;52945;51.908;8.364;2023-04-07T03:30:41;10.20;72.10
66140;DHT22;52945;51.908;8.364;2023-04-07T03:33:41;10.20;71.90
66140;DHT22;52945;51.908;8.364;2023-04-07T03:36:42;10.20;72.50
66140;DHT22;52945;51.908;8.364;2023-04-07T03:39:42;10.30;72.60
66140;DHT22;52945;51.908;8.364;2023-04-07T03:42:45;10.20;72.50
66140;DHT22;52945;51.908;8.364;2023-04-07T03:45:46;10.30;72.60
66140;DHT22;52945;51.908;8.364;2023-04-07T03:48:46;10.20;72.50
66140;DHT22;52945;51.908;8.364;2023-04-07T03:51:47;10.20;72.80
66140;DHT22;52945;51.908;8.364;2023-04-07T03:54:47;10.20;72.70
66140;DHT22;52945;51.908;8.364;2023-04-07T03:57:48;10.20;73.00
66140;DHT22;52945;51.908;8.364;2023-04-07T04:00:49;10.20;73.10
66140;DHT22;52945;51.908;8.364;2023-04-07T04:03:49;10.20;73.20
66140;DHT22;52945;51.908;8.364;2023-04-07T04:06:50;10.20;73.10
66140;DHT22;52945;51.908;8.364;2023-04-07T04:09:51;10.20;73.30
66140;DHT22;52945;51.908;8.364;2023-04-07T04:12:52;10.20;73.30
66140;DHT22;52945;51.908;8.364;2023-04-07T04:15:52;10.20;73.30
66140;DHT22;52945;51.908;8.364;2023-04-07T04:18:53;10.20;73.10
66140;DHT22;52945;51.908;8.364;2023-04-07T04:21:53;10.20;73.30
66140;DHT22;52945;51.908;8.364;2023-04-07T04:24:54;10.20;73.50
66140;DHT22;52945;51.908;8.364;2023-04-07T04:27:55;10.20;73.20
66140;DHT22;52945;51.908;8.364;2023-04-07T04:30:55;10.20;73.50
66140;DHT22;52945;51.908;8.364;2023-04-07T04:33:56;10.20;73.50
66140;DHT22;52945;51.908;8.364;2023-04-07T04:36:56;10.20;73.40
66140;DHT22;52945;51.908;8.364;2023-04-07T04:39:57;10.10;73.50
66140;DHT22;52945;51.908;8.364;2023-04-07T04:42:57;10.20;73.50
66140;DHT22;52945;51.908;8.364;2023-04-07T04:45:58;10.20;73.60
66140;DHT22;52945;51.908;8.364;2023-04-07T04:48:59;10.20;73.60
66140;DHT22;52945;51.908;8.364;2023-04-07T04:51:59;10.10;73.70
66140;DHT22;52945;51.908;8.364;2023-04-07T04:55:00;10.20;73.90
66140;DHT22;52945;51.908;8.364;2023-04-07T04:58:01;10.10;73.70
66140;DHT22;52945;51.908;8.364;2023-04-07T05:01:01;10.10;73.80
66140;DHT22;52945;51.908;8.364;2023-04-07T05:04:02;10.10;73.80
66140;DHT22;52945;51.908;8.364;2023-04-07T05:07:03;10.10;73.30
66140;DHT22;52945;51.908;8.364;2023-04-07T05:10:04;10.10;73.80
66140;DHT22;52945;51.908;8.364;2023-04-07T05:13:04;10.10;73.60
66140;DHT22;52945;51.908;8.364;2023-04-07T05:16:05;10.00;74.00
66140;DHT22;52945;51.908;8.364;2023-04-07T05:19:06;10.10;74.10
66140;DHT22;52945;51.908;8.364;2023-04-07T05:22:07;10.10;74.20
66140;DHT22;52945;51.908;8.364;2023-04-07T05:25:08;10.10;74.30
66140;DHT22;52945;51.908;8.364;2023-04-07T05:28:08;10.10;74.20
66140;DHT22;52945;51.908;8.364;2023-04-07T05:31:09;10.10;74.20
66140;DHT22;52945;51.908;8.364;2023-04-07T05:34:09;10.10;74.20
66140;DHT22;52945;51.908;8.364;2023-04-07T05:37:10;10.10;74.10
66140;DHT22;52945;51.908;8.364;2023-04-07T05:40:11;10.10;74.30
66140;DHT22;52945;51.908;8.364;2023-04-07T05:43:12;10.10;74.30
66140;DHT22;52945;51.908;8.364;2023-04-07T05:46:12;10.10;74.30
66140;DHT22;52945;51.908;8.364;2023-04-07T05:49:13;10.10;74.40
66140;DHT22;52945;51.908;8.364;2023-04-07T05:52:14;10.10;74.40
66140;DHT22;52945;51.908;8.364;2023-04-07T05:55:14;10.20;74.50
66140;DHT22;52945;51.908;8.364;2023-04-07T05:58:15;10.10;74.60
66140;DHT22;52945;51.908;8.364;2023-04-07T06:01:16;10.10;74.50
66140;DHT22;52945;51.908;8.364;2023-04-07T06:04:16;10.10;74.30
66140;DHT22;52945;51.908;8.364;2023-04-07T06:07:17;10.10;74.70
66140;DHT22;52945;51.908;8.364;2023-04-07T06:10:17;10.10;74.80
66140;DHT22;52945;51.908;8.364;2023-04-07T06:13:18;10.10;74.70
66140;DHT22;52945;51.908;8.364;2023-04-07T06:16:19;10.10;74.80
66140;DHT22;52945;51.908;8.364;2023-04-07T06:19:19;10.20;74.80
66140;DHT22;52945;51.908;8.364;2023-04-07T06:22:20;10.20;74.70
66140;DHT22;52945;51.908;8.364;2023-04-07T06:25:20;10.20;74.60
66140;DHT22;52945;51.908;8.364;2023-04-07T06:28:21;10.10;74.90
66140;DHT22;52945;51.908;8.364;2023-04-07T06:31:22;10.20;75.00
66140;DHT22;52945;51.908;8.364;2023-04-07T06:34:22;10.20;75.00
66140;DHT22;52945;51.908;8.364;2023-04-07T06:37:23;10.20;75.10
66140;DHT22;52945;51.908;8.364;2023-04-07T06:40:25;10.20;74.60
66140;DHT22;52945;51.908;8.364;2023-04-07T06:43:25;10.20;75.10
66140;DHT22;52945;51.908;8.364;2023-04-07T06:46:26;10.20;75.10
66140;DHT22;52945;51.908;8.364;2023-04-07T06:49:27;10.10;75.10
66140;DHT22;52945;51.908;8.364;2023-04-07T06:52:27;10.10;75.30
66140;DHT22;52945;51.908;8.364;2023-04-07T06:55:28;10.20;75.50
66140;DHT22;52945;51.908;8.364;2023-04-07T06:58:28;10.20;75.50
66140;DHT22;52945;51.908;8.364;2023-04-07T07:01:29;10.20;75.50
66140;DHT22;52945;51.908;8.364;2023-04-07T07:04:30;10.20;75.50
66140;DHT22;52945;51.908;8.364;2023-04-07T07:07:30;10.20;75.50
66140;DHT22;52945;51.908;8.364;2023-04-07T07:10:31;10.20;75.60
66140;DHT22;52945;51.908;8.364;2023-04-07T07:13:31;10.30;75.60
66140;DHT22;52945;51.908;8.364;2023-04-07T07:16:32;10.30;75.90
66140;DHT22;52945;51.908;8.364;2023-04-07T07:19:33;10.40;75.90
66140;DHT22;52945;51.908;8.364;2023-04-07T07:22:33;10.40;75.90
66140;DHT22;52945;51.908;8.364;2023-04-07T07:25:34;10.40;76.10
66140;DHT22;52945;51.908;8.364;2023-04-07T07:28:35;10.40;75.80
66140;DHT22;52945;51.908;8.364;2023-04-07T07:31:36;10.50;76.00
66140;DHT22;52945;51.908;8.364;2023-04-07T07:34:36;10.50;75.80
66140;DHT22;52945;51.908;8.364;2023-04-07T07:37:37;10.60;75.80
66140;DHT22;52945;51.908;8.364;2023-04-07T07:40:37;10.60;75.70
66140;DHT22;52945;51.908;8.364;2023-04-07T07:43:38;10.60;75.70
66140;DHT22;52945;51.908;8.364;2023-04-07T07:46:38;10.70;75.00
66140;DHT22;52945;51.908;8.364;2023-04-07T07:49:39;10.70;75.40
66140;DHT22;52945;51.908;8.364;2023-04-07T07:52:41;10.70;74.70
66140;DHT22;52945;51.908;8.364;2023-04-07T07:55:42;10.70;74.90
66140;DHT22;52945;51.908;8.364;2023-04-07T07:58:43;10.70;74.90
66140;DHT22;52945;51.908;8.364;2023-04-07T08:01:43;10.80;75.20
66140;DHT22;52945;51.908;8.364;2023-04-07T08:04:44;10.90;74.70
66140;DHT22;52945;51.908;8.364;2023-04-07T08:07:45;10.80;73.90
66140;DHT22;52945;51.908;8.364;2023-04-07T08:10:46;10.80;73.40
66140;DHT22;52945;51.908;8.364;2023-04-07T08:13:47;10.80;73.80
66140;DHT22;52945;51.908;8.364;2023-04-07T08:16:47;10.90;73.50
66140;DHT22;52945;51.908;8.364;2023-04-07T08:19:48;11.00;73.20
66140;DHT22;52945;51.908;8.364;2023-04-07T08:22:48;11.00;72.30
66140;DHT22;52945;51.908;8.364;2023-04-07T08:25:49;11.00;72.10
66140;DHT22;52945;51.908;8.364;2023-04-07T08:28:50;11.10;72.10
66140;DHT22;52945;51.908;8.364;2023-04-07T08:31:51;11.20;72.00
66140;DHT22;52945;51.908;8.364;2023-04-07T08:34:54;11.30;72.20
66140;DHT22;52945;51.908;8.364;2023-04-07T08:37:55;11.20;71.60
66140;DHT22;52945;51.908;8.364;2023-04-07T08:41:17;11.40;71.90
66140;DHT22;52945;51.908;8.364;2023-04-07T08:44:20;11.40;71.10
66140;DHT22;52945;51.908;8.364;2023-04-07T08:47:21;11.50;70.60
66140;DHT22;52945;51.908;8.364;2023-04-07T08:50:25;11.60;71.40
66140;DHT22;52945;51.908;8.364;2023-04-07T08:53:37;11.50;70.90
66140;DHT22;52945;51.908;8.364;2023-04-07T08:56:40;11.60;71.60
66140;DHT22;52945;51.908;8.364;2023-04-07T08:59:41;11.60;70.50
66140;DHT22;52945;51.908;8.364;2023-04-07T09:02:44;11.70;71.00
66140;DHT22;52945;51.908;8.364;2023-04-07T09:05:48;11.80;71.40
66140;DHT22;52945;51.908;8.364;2023-04-07T09:08:50;11.90;71.20
66140;DHT22;52945;51.908;8.364;2023-04-07T09:11:51;11.90;70.50
66140;DHT22;52945;51.908;8.364;2023-04-07T09:14:52;12.00;70.20
66140;DHT22;52945;51.908;8.364;2023-04-07T09:17:53;11.80;67.90
66140;DHT22;52945;51.908;8.364;2023-04-07T09:21:03;12.00;68.90
66140;DHT22;52945;51.908;8.364;2023-04-07T09:24:25;12.00;68.60
66140;DHT22;52945;51.908;8.364;2023-04-07T09:27:26;12.10;67.90
66140;DHT22;52945;51.908;8.364;2023-04-07T09:30:29;12.20;68.30
66140;DHT22;52945;51.908;8.364;2023-04-07T09:33:30;12.20;68.70
66140;DHT22;52945;51.908;8.364;2023-04-07T09:36:40;12.30;68.00
66140;DHT22;52945;51.908;8.364;2023-04-07T09:39:49;12.20;66.60
66140;DHT22;52945;51.908;8.364;2023-04-07T09:42:50;12.20;66.00
66140;DHT22;52945;51.908;8.364;2023-04-07T09:45:51;12.10;63.80
66140;DHT22;52945;51.908;8.364;2023-04-07T09:49:03;12.00;64.70
66140;DHT22;52945;51.908;8.364;2023-04-07T09:52:07;12.10;65.40
66140;DHT22;52945;51.908;8.364;2023-04-07T09:55:08;12.10;64.90
66140;DHT22;52945;51.908;8.364;2023-04-07T09:58:11;12.10;64.30
66140;DHT22;52945;51.908;8.364;2023-04-07T10:01:14;12.10;64.40
66140;DHT22;52945;51.908;8.364;2023-04-07T10:04:18;12.00;64.20
66140;DHT22;52945;51.908;8.364;2023-04-07T10:07:19;11.90;64.40
66140;DHT22;52945;51.908;8.364;2023-04-07T10:10:20;11.90;64.10
66140;DHT22;52945;51.908;8.364;2023-04-07T10:13:20;11.90;63.90
66140;DHT22;52945;51.908;8.364;2023-04-07T10:16:21;12.00;64.50
66140;DHT22;52945;51.908;8.364;2023-04-07T10:19:23;12.10;64.90
66140;DHT22;52945;51.908;8.364;2023-04-07T10:22:26;12.10;63.20
66140;DHT22;52945;51.908;8.364;2023-04-07T10:25:28;12.00;63.50
66140;DHT22;52945;51.908;8.364;2023-04-07T10:28:30;12.00;63.50
66140;DHT22;52945;51.908;8.364;2023-04-07T10:31:32;11.90;62.60
66140;DHT22;52945;51.908;8.364;2023-04-07T10:38:12;11.90;62.90
66140;DHT22;52945;51.908;8.364;2023-04-07T10:41:36;11.90;62.70
66140;DHT22;52945;51.908;8.364;2023-04-07T10:48:09;11.80;64.10
66140;DHT22;52945;51.908;8.364;2023-04-07T10:51:12;11.90;63.40
66140;DHT22;52945;51.908;8.364;2023-04-07T10:54:18;12.00;63.30
66140;DHT22;52945;51.908;8.364;2023-04-07T10:57:23;12.00;63.00
66140;DHT22;52945;51.908;8.364;2023-04-07T11:00:23;12.10;63.50
66140;DHT22;52945;51.908;8.364;2023-04-07T11:03:25;12.20;63.00
66140;DHT22;52945;51.908;8.364;2023-04-07T11:06:28;12.20;62.00
66140;DHT22;52945;51.908;8.364;2023-04-07T11:09:29;12.30;62.20
66140;DHT22;52945;51.908;8.364;2023-04-07T11:12:30;12.30;61.50
66140;DHT22;52945;51.908;8.364;2023-04-07T11:15:31;12.30;60.70
66140;DHT22;52945;51.908;8.364;2023-04-07T11:18:31;12.30;60.40
66140;DHT22;52945;51.908;8.364;2023-04-07T11:21:32;12.30;60.00
66140;DHT22;52945;51.908;8.364;2023-04-07T11:24:34;12.40;60.10
66140;DHT22;52945;51.908;8.364;2023-04-07T11:27:37;12.40;59.60
66140;DHT22;52945;51.908;8.364;2023-04-07T11:30:38;12.40;60.10
66140;DHT22;52945;51.908;8.364;2023-04-07T11:33:38;12.40;60.40
66140;DHT22;52945;51.908;8.364;2023-04-07T11:36:40;12.50;60.20
66140;DHT22;52945;51.908;8.364;2023-04-07T11:39:41;12.60;59.90
66140;DHT22;52945;51.908;8.364;2023-04-07T11:42:42;12.70;60.40
66140;DHT22;52945;51.908;8.364;2023-04-07T11:45:46;12.80;59.40
66140;DHT22;52945;51.908;8.364;2023-04-07T11:48:47;12.80;59.20
66140;DHT22;52945;51.908;8.364;2023-04-07T11:51:48;13.00;59.30
66140;DHT22;52945;51.908;8.364;2023-04-07T11:54:56;13.00;59.00
66140;DHT22;52945;51.908;8.364;2023-04-07T11:58:06;13.10;57.80
66140;DHT22;52945;51.908;8.364;2023-04-07T12:01:09;13.30;58.80
66140;DHT22;52945;51.908;8.364;2023-04-07T12:04:12;13.30;58.50
66140;DHT22;52945;51.908;8.364;2023-04-07T12:07:14;13.40;57.70
66140;DHT22;52945;51.908;8.364;2023-04-07T12:10:18;13.50;56.90
66140;DHT22;52945;51.908;8.364;2023-04-07T12:13:19;13.60;57.10
66140;DHT22;52945;51.908;8.364;2023-04-07T12:16:20;13.70;56.40
66140;DHT22;52945;51.908;8.364;2023-04-07T12:19:25;13.70;55.40
66140;DHT22;52945;51.908;8.364;2023-04-07T12:22:27;13.70;55.20
66140;DHT22;52945;51.908;8.364;2023-04-07T12:25:28;13.90;54.80
66140;DHT22;52945;51.908;8.364;2023-04-07T12:28:28;13.80;54.10
66140;DHT22;52945;51.908;8.364;2023-04-07T12:31:30;13.80;54.40
66140;DHT22;52945;51.908;8.364;2023-04-07T12:34:30;13.90;54.80
66140;DHT22;52945;51.908;8.364;2023-04-07T12:37:31;14.00;54.90
66140;DHT22;52945;51.908;8.364;2023-04-07T12:40:32;13.90;55.50
66140;DHT22;52945;51.908;8.364;2023-04-07T12:43:33;13.90;55.40
66140;DHT22;52945;51.908;8.364;2023-04-07T12:46:34;13.90;55.10
66140;DHT22;52945;51.908;8.364;2023-04-07T12:49:35;14.00;55.60
66140;DHT22;52945;51.908;8.364;2023-04-07T12:52:36;14.00;55.10
66140;DHT22;52945;51.908;8.364;2023-04-07T12:55:36;13.90;53.50
66140;DHT22;52945;51.908;8.364;2023-04-07T12:58:37;13.90;54.10
66140;DHT22;52945;51.908;8.364;2023-04-07T13:01:38;14.00;54.30
66140;DHT22;52945;51.908;8.364;2023-04-07T13:04:39;14.00;54.00
66140;DHT22;52945;51.908;8.364;2023-04-07T13:07:42;14.00;54.60
66140;DHT22;52945;51.908;8.364;2023-04-07T13:10:43;14.00;53.70
66140;DHT22;52945;51.908;8.364;2023-04-07T13:13:43;14.00;53.50
66140;DHT22;52945;51.908;8.364;2023-04-07T13:16:44;14.00;52.90
66140;DHT22;52945;51.908;8.364;2023-04-07T13:19:45;14.10;53.60
66140;DHT22;52945;51.908;8.364;2023-04-07T13:22:47;14.20;53.80
66140;DHT22;52945;51.908;8.364;2023-04-07T13:25:48;14.20;53.90
66140;DHT22;52945;51.908;8.364;2023-04-07T13:28:48;14.30;53.30
66140;DHT22;52945;51.908;8.364;2023-04-07T13:31:49;14.20;53.60
66140;DHT22;52945;51.908;8.364;2023-04-07T13:34:49;14.40;53.60
66140;DHT22;52945;51.908;8.364;2023-04-07T13:37:50;14.40;53.70
66140;DHT22;52945;51.908;8.364;2023-04-07T13:40:50;14.50;53.30
66140;DHT22;52945;51.908;8.364;2023-04-07T13:43:51;14.50;53.70
66140;DHT22;52945;51.908;8.364;2023-04-07T13:46:52;14.60;53.20
66140;DHT22;52945;51.908;8.364;2023-04-07T13:49:53;14.70;53.10
66140;DHT22;52945;51.908;8.364;2023-04-07T13:52:53;14.70;53.70
66140;DHT22;52945;51.908;8.364;2023-04-07T13:55:54;14.80;54.10
66140;DHT22;52945;51.908;8.364;2023-04-07T13:58:55;14.80;53.30
66140;DHT22;52945;51.908;8.364;2023-04-07T14:01:55;15.00;52.90
66140;DHT22;52945;51.908;8.364;2023-04-07T14:04:56;14.90;51.70
66140;DHT22;52945;51.908;8.364;2023-04-07T14:07:57;15.10;52.10
66140;DHT22;52945;51.908;8.364;2023-04-07T14:10:57;15.20;51.30
66140;DHT22;52945;51.908;8.364;2023-04-07T14:13:58;15.30;52.20
66140;DHT22;52945;51.908;8.364;2023-04-07T14:16:58;15.50;51.30
66140;DHT22;52945;51.908;8.364;2023-04-07T14:19:59;15.60;50.20
66140;DHT22;52945;51.908;8.364;2023-04-07T14:22:59;15.70;51.10
66140;DHT22;52945;51.908;8.364;2023-04-07T14:26:00;16.00;51.40
66140;DHT22;52945;51.908;8.364;2023-04-07T14:29:01;16.10;50.00
66140;DHT22;52945;51.908;8.364;2023-04-07T14:32:03;16.20;48.90
66140;DHT22;52945;51.908;8.364;2023-04-07T14:35:04;16.30;49.00
66140;DHT22;52945;51.908;8.364;2023-04-07T14:38:05;16.40;48.40
66140;DHT22;52945;51.908;8.364;2023-04-07T14:41:06;16.40;48.70
66140;DHT22;52945;51.908;8.364;2023-04-07T14:44:07;16.40;49.70
66140;DHT22;52945;51.908;8.364;2023-04-07T14:47:07;16.40;48.90
66140;DHT22;52945;51.908;8.364;2023-04-07T14:50:09;16.30;48.50
66140;DHT22;52945;51.908;8.364;2023-04-07T14:53:10;16.30;48.70
66140;DHT22;52945;51.908;8.364;2023-04-07T14:56:11;16.20;48.50
66140;DHT22;52945;51.908;8.364;2023-04-07T14:59:12;16.10;49.10
66140;DHT22;52945;51.908;8.364;2023-04-07T15:02:13;16.10;49.50
66140;DHT22;52945;51.908;8.364;2023-04-07T15:05:13;16.00;49.20
66140;DHT22;52945;51.908;8.364;2023-04-07T15:08:14;16.00;49.50
66140;DHT22;52945;51.908;8.364;2023-04-07T15:11:14;15.90;49.90
66140;DHT22;52945;51.908;8.364;2023-04-07T15:14:15;15.90;49.60
66140;DHT22;52945;51.908;8.364;2023-04-07T15:17:15;15.80;49.90
66140;DHT22;52945;51.908;8.364;2023-04-07T15:20:16;15.90;50.10
66140;DHT22;52945;51.908;8.364;2023-04-07T15:23:17;15.90;49.70
66140;DHT22;52945;51.908;8.364;2023-04-07T15:26:17;15.90;49.60
66140;DHT22;52945;51.908;8.364;2023-04-07T15:29:18;15.80;49.60
66140;DHT22;52945;51.908;8.364;2023-04-07T15:32:18;15.80;50.20
66140;DHT22;52945;51.908;8.364;2023-04-07T15:35:19;15.80;50.60
66140;DHT22;52945;51.908;8.364;2023-04-07T15:38:20;15.80;50.60
66140;DHT22;52945;51.908;8.364;2023-04-07T15:41:20;15.70;50.70
66140;DHT22;52945;51.908;8.364;2023-04-07T15:44:22;15.70;50.10
66140;DHT22;52945;51.908;8.364;2023-04-07T15:47:23;15.60;50.10
66140;DHT22;52945;51.908;8.364;2023-04-07T15:50:23;15.60;50.50
66140;DHT22;52945;51.908;8.364;2023-04-07T15:53:24;15.50;51.20
66140;DHT22;52945;51.908;8.364;2023-04-07T15:56:25;15.50;51.50
66140;DHT22;52945;51.908;8.364;2023-04-07T15:59:25;15.50;51.10
66140;DHT22;52945;51.908;8.364;2023-04-07T16:02:28;15.50;51.30
66140;DHT22;52945;51.908;8.364;2023-04-07T16:05:29;15.50;51.20
66140;DHT22;52945;51.908;8.364;2023-04-07T16:08:29;15.50;51.80
66140;DHT22;52945;51.908;8.364;2023-04-07T16:11:30;15.50;51.60
66140;DHT22;52945;51.908;8.364;2023-04-07T16:14:31;15.40;52.20
66140;DHT22;52945;51.908;8.364;2023-04-07T16:17:32;15.40;51.70
66140;DHT22;52945;51.908;8.364;2023-04-07T16:20:33;15.40;51.70
66140;DHT22;52945;51.908;8.364;2023-04-07T16:23:33;15.30;51.80
66140;DHT22;52945;51.908;8.364;2023-04-07T16:26:34;15.20;51.40
66140;DHT22;52945;51.908;8.364;2023-04-07T16:29:34;15.20;51.50
66140;DHT22;52945;51.908;8.364;2023-04-07T16:32:35;15.20;52.20
66140;DHT22;52945;51.908;8.364;2023-04-07T16:35:36;15.20;52.10
66140;DHT22;52945;51.908;8.364;2023-04-07T16:38:37;15.10;52.00
66140;DHT22;52945;51.908;8.364;2023-04-07T16:41:37;15.10;52.40
66140;DHT22;52945;51.908;8.364;2023-04-07T16:44:41;15.10;52.90
66140;DHT22;52945;51.908;8.364;2023-04-07T16:47:41;15.10;52.90
66140;DHT22;52945;51.908;8.364;2023-04-07T16:50:44;15.00;52.40
66140;DHT22;52945;51.908;8.364;2023-04-07T16:53:44;14.90;52.50
66140;DHT22;52945;51.908;8.364;2023-04-07T16:56:47;14.90;53.80
66140;DHT22;52945;51.908;8.364;2023-04-07T16:59:48;14.90;53.40
66140;DHT22;52945;51.908;8.364;2023-04-07T17:02:49;14.80;52.80
66140;DHT22;52945;51.908;8.364;2023-04-07T17:05:49;14.80;53.00
66140;DHT22;52945;51.908;8.364;2023-04-07T17:08:50;14.80;53.30
66140;DHT22;52945;51.908;8.364;2023-04-07T17:11:50;14.70;54.00
66140;DHT22;52945;51.908;8.364;2023-04-07T17:14:51;14.70;54.50
66140;DHT22;52945;51.908;8.364;2023-04-07T17:17:52;14.70;54.80
66140;DHT22;52945;51.908;8.364;2023-04-07T17:20:52;14.70;54.30
66140;DHT22;52945;51.908;8.364;2023-04-07T17:23:53;14.70;53.70
66140;DHT22;52945;51.908;8.364;2023-04-07T17:26:53;14.70;54.20
66140;DHT22;52945;51.908;8.364;2023-04-07T17:29:54;14.70;54.50
66140;DHT22;52945;51.908;8.364;2023-04-07T17:32:55;14.60;54.90
66140;DHT22;52945;51.908;8.364;2023-04-07T17:35:56;14.70;54.70
66140;DHT22;52945;51.908;8.364;2023-04-07T17:38:57;14.60;55.40
66140;DHT22;52945;51.908;8.364;2023-04-07T17:41:57;14.60;55.40
66140;DHT22;52945;51.908;8.364;2023-04-07T17:44:58;14.60;55.10
66140;DHT22;52945;51.908;8.364;2023-04-07T17:47:59;14.50;54.80
66140;DHT22;52945;51.908;8.364;2023-04-07T17:51:03;14.50;55.20
66140;DHT22;52945;51.908;8.364;2023-04-07T17:54:03;14.40;55.30
66140;DHT22;52945;51.908;8.364;2023-04-07T17:57:04;14.30;55.40
66140;DHT22;52945;51.908;8.364;2023-04-07T18:00:06;14.30;55.60
66140;DHT22;52945;51.908;8.364;2023-04-07T18:03:07;14.20;56.00
66140;DHT22;52945;51.908;8.364;2023-04-07T18:06:07;14.20;56.30
66140;DHT22;52945;51.908;8.364;2023-04-07T18:09:08;14.20;56.10
66140;DHT22;52945;51.908;8.364;2023-04-07T18:12:09;14.20;56.10
66140;DHT22;52945;51.908;8.364;2023-04-07T18:15:10;14.10;56.20
66140;DHT22;52945;51.908;8.364;2023-04-07T18:18:10;14.10;56.60
66140;DHT22;52945;51.908;8.364;2023-04-07T18:21:11;14.00;56.50
66140;DHT22;52945;51.908;8.364;2023-04-07T18:24:12;13.80;57.00
66140;DHT22;52945;51.908;8.364;2023-04-07T18:27:12;13.70;57.20
66140;DHT22;52945;51.908;8.364;2023-04-07T18:30:13;13.70;57.50
66140;DHT22;52945;51.908;8.364;2023-04-07T18:33:13;13.60;57.60
66140;DHT22;52945;51.908;8.364;2023-04-07T18:36:14;13.60;57.80
66140;DHT22;52945;51.908;8.364;2023-04-07T18:39:15;13.60;57.80
66140;DHT22;52945;51.908;8.364;2023-04-07T18:42:15;13.50;57.80
66140;DHT22;52945;51.908;8.364;2023-04-07T18:45:16;13.50;58.00
66140;DHT22;52945;51.908;8.364;2023-04-07T18:48:17;13.40;58.10
66140;DHT22;52945;51.908;8.364;2023-04-07T18:51:18;13.40;58.60
66140;DHT22;52945;51.908;8.364;2023-04-07T18:54:19;13.30;58.70
66140;DHT22;52945;51.908;8.364;2023-04-07T18:57:20;13.30;58.50
66140;DHT22;52945;51.908;8.364;2023-04-07T19:00:21;13.20;58.60
66140;DHT22;52945;51.908;8.364;2023-04-07T19:03:21;13.20;58.90
66140;DHT22;52945;51.908;8.364;2023-04-07T19:06:22;13.10;59.00
66140;DHT22;52945;51.908;8.364;2023-04-07T19:09:22;13.10;58.80
66140;DHT22;52945;51.908;8.364;2023-04-07T19:12:23;13.00;58.80